sensor_id;sensor_type;location;lat;lon;timestamp;P1;durP1;ratioP1;P2;durP2;ratioP2
15699;SDS011;7950;42.744;23.174;2024-03-08T00:00:14;2.60;;;2.40;;
15699;SDS011;7950;42.744;23.174;2024-03-08T00:02:46;3.63;;;2.70;;
15699;SDS011;7950;42.744;23.174;2024-03-08T00:05:17;2.80;;;2.53;;
15699;SDS011;7950;42.744;23.174;2024-03-08T00:07:46;3.43;;;2.67;;
15699;SDS011;7950;42.744;23.174;2024-03-08T00:10:16;3.43;;;2.70;;
15699;SDS011;7950;42.744;23.174;2024-03-08T00:12:49;4.37;;;2.73;;
15699;SDS011;7950;42.744;23.174;2024-03-08T00:15:18;3.57;;;2.57;;
15699;SDS011;7950;42.744;23.174;2024-03-08T00:17:46;3.37;;;2.63;;
15699;SDS011;7950;42.744;23.174;2024-03-08T00:20:15;3.63;;;2.53;;
15699;SDS011;7950;42.744;23.174;2024-03-08T00:22:45;4.07;;;2.57;;
15699;SDS011;7950;42.744;23.174;2024-03-08T00:25:14;4.40;;;2.80;;
15699;SDS011;7950;42.744;23.174;2024-03-08T00:27:45;4.70;;;3.53;;
15699;SDS011;7950;42.744;23.174;2024-03-08T00:30:16;3.50;;;3.20;;
15699;SDS011;7950;42.744;23.174;2024-03-08T00:32:44;4.27;;;3.10;;
15699;SDS011;7950;42.744;23.174;2024-03-08T00:35:13;3.40;;;3.10;;
15699;SDS011;7950;42.744;23.174;2024-03-08T00:37:42;4.43;;;3.60;;
15699;SDS011;7950;42.744;23.174;2024-03-08T00:40:13;4.40;;;3.50;;
15699;SDS011;7950;42.744;23.174;2024-03-08T00:42:43;5.40;;;3.83;;
15699;SDS011;7950;42.744;23.174;2024-03-08T00:45:12;6.37;;;4.73;;
15699;SDS011;7950;42.744;23.174;2024-03-08T00:47:41;5.93;;;4.03;;
15699;SDS011;7950;42.744;23.174;2024-03-08T00:50:11;6.20;;;4.87;;
15699;SDS011;7950;42.744;23.174;2024-03-08T00:52:40;10.23;;;7.10;;
15699;SDS011;7950;42.744;23.174;2024-03-08T00:55:08;4.57;;;3.80;;
15699;SDS011;7950;42.744;23.174;2024-03-08T00:57:38;3.83;;;2.70;;
15699;SDS011;7950;42.744;23.174;2024-03-08T01:00:09;3.87;;;3.47;;
15699;SDS011;7950;42.744;23.174;2024-03-08T01:02:39;3.77;;;3.00;;
15699;SDS011;7950;42.744;23.174;2024-03-08T01:05:08;3.37;;;3.07;;
15699;SDS011;7950;42.744;23.174;2024-03-08T01:07:36;3.17;;;2.87;;
15699;SDS011;7950;42.744;23.174;2024-03-08T01:10:05;5.13;;;3.30;;
15699;SDS011;7950;42.744;23.174;2024-03-08T01:12:37;2.80;;;2.57;;
15699;SDS011;7950;42.744;23.174;2024-03-08T01:15:06;2.67;;;2.47;;
15699;SDS011;7950;42.744;23.174;2024-03-08T01:17:37;6.47;;;3.90;;
15699;SDS011;7950;42.744;23.174;2024-03-08T01:20:06;2.60;;;2.40;;
15699;SDS011;7950;42.744;23.174;2024-03-08T01:22:38;4.80;;;3.10;;
15699;SDS011;7950;42.744;23.174;2024-03-08T01:25:07;2.40;;;2.20;;
15699;SDS011;7950;42.744;23.174;2024-03-08T01:27:36;2.97;;;2.33;;
15699;SDS011;7950;42.744;23.174;2024-03-08T01:30:05;2.50;;;1.80;;
15699;SDS011;7950;42.744;23.174;2024-03-08T01:32:37;2.17;;;1.97;;
15699;SDS011;7950;42.744;23.174;2024-03-08T01:35:06;2.10;;;1.90;;
15699;SDS011;7950;42.744;23.174;2024-03-08T01:37:36;2.60;;;2.10;;
15699;SDS011;7950;42.744;23.174;2024-03-08T01:40:06;2.43;;;2.20;;
15699;SDS011;7950;42.744;23.174;2024-03-08T01:42:36;2.23;;;2.00;;
15699;SDS011;7950;42.744;23.174;2024-03-08T01:45:05;2.77;;;2.20;;
15699;SDS011;7950;42.744;23.174;2024-03-08T01:47:35;3.07;;;2.70;;
15699;SDS011;7950;42.744;23.174;2024-03-08T01:50:05;5.07;;;2.93;;
15699;SDS011;7950;42.744;23.174;2024-03-08T01:52:35;9.00;;;5.17;;
15699;SDS011;7950;42.744;23.174;2024-03-08T01:55:05;5.77;;;3.27;;
15699;SDS011;7950;42.744;23.174;2024-03-08T01:57:34;4.17;;;3.33;;
15699;SDS011;7950;42.744;23.174;2024-03-08T02:00:05;4.27;;;3.30;;
15699;SDS011;7950;42.744;23.174;2024-03-08T02:02:37;3.10;;;2.47;;
15699;SDS011;7950;42.744;23.174;2024-03-08T02:05:11;3.33;;;2.63;;
15699;SDS011;7950;42.744;23.174;2024-03-08T02:07:40;14.57;;;10.23;;
15699;SDS011;7950;42.744;23.174;2024-03-08T02:10:10;10.63;;;7.03;;
15699;SDS011;7950;42.744;23.174;2024-03-08T02:12:39;6.73;;;5.27;;
15699;SDS011;7950;42.744;23.174;2024-03-08T02:15:07;3.50;;;2.67;;
15699;SDS011;7950;42.744;23.174;2024-03-08T02:17:37;2.73;;;2.23;;
15699;SDS011;7950;42.744;23.174;2024-03-08T02:20:06;2.40;;;2.20;;
15699;SDS011;7950;42.744;23.174;2024-03-08T02:22:37;4.27;;;2.37;;
15699;SDS011;7950;42.744;23.174;2024-03-08T02:25:06;3.80;;;3.17;;
15699;SDS011;7950;42.744;23.174;2024-03-08T02:27:37;7.97;;;5.17;;
15699;SDS011;7950;42.744;23.174;2024-03-08T02:30:06;6.20;;;4.20;;
15699;SDS011;7950;42.744;23.174;2024-03-08T02:32:36;3.77;;;2.97;;
15699;SDS011;7950;42.744;23.174;2024-03-08T02:35:05;4.30;;;3.40;;
15699;SDS011;7950;42.744;23.174;2024-03-08T02:37:34;3.67;;;3.33;;
15699;SDS011;7950;42.744;23.174;2024-03-08T02:40:04;3.87;;;3.30;;
15699;SDS011;7950;42.744;23.174;2024-03-08T02:42:34;2.70;;;2.50;;
15699;SDS011;7950;42.744;23.174;2024-03-08T02:45:02;3.10;;;2.77;;
15699;SDS011;7950;42.744;23.174;2024-03-08T02:47:32;3.70;;;2.83;;
15699;SDS011;7950;42.744;23.174;2024-03-08T02:50:01;5.73;;;3.20;;
15699;SDS011;7950;42.744;23.174;2024-03-08T02:52:30;3.57;;;2.97;;
15699;SDS011;7950;42.744;23.174;2024-03-08T02:55:00;4.40;;;2.97;;
15699;SDS011;7950;42.744;23.174;2024-03-08T02:57:30;3.37;;;3.07;;
15699;SDS011;7950;42.744;23.174;2024-03-08T02:59:58;2.80;;;2.60;;
15699;SDS011;7950;42.744;23.174;2024-03-08T03:02:27;2.57;;;2.27;;
15699;SDS011;7950;42.744;23.174;2024-03-08T03:04:55;2.40;;;2.20;;
15699;SDS011;7950;42.744;23.174;2024-03-08T03:07:25;2.87;;;2.23;;
15699;SDS011;7950;42.744;23.174;2024-03-08T03:09:54;1.97;;;1.77;;
15699;SDS011;7950;42.744;23.174;2024-03-08T03:12:22;2.07;;;1.87;;
15699;SDS011;7950;42.744;23.174;2024-03-08T03:14:52;2.90;;;2.07;;
15699;SDS011;7950;42.744;23.174;2024-03-08T03:17:20;2.47;;;1.60;;
15699;SDS011;7950;42.744;23.174;2024-03-08T03:19:49;2.10;;;1.80;;
15699;SDS011;7950;42.744;23.174;2024-03-08T03:22:18;1.77;;;1.67;;
15699;SDS011;7950;42.744;23.174;2024-03-08T03:24:47;1.73;;;1.60;;
15699;SDS011;7950;42.744;23.174;2024-03-08T03:27:16;1.80;;;1.70;;
15699;SDS011;7950;42.744;23.174;2024-03-08T03:29:44;1.80;;;1.70;;
15699;SDS011;7950;42.744;23.174;2024-03-08T03:32:15;1.77;;;1.67;;
15699;SDS011;7950;42.744;23.174;2024-03-08T03:34:45;1.60;;;1.50;;
15699;SDS011;7950;42.744;23.174;2024-03-08T03:37:13;1.80;;;1.70;;
15699;SDS011;7950;42.744;23.174;2024-03-08T03:39:44;1.90;;;1.57;;
15699;SDS011;7950;42.744;23.174;2024-03-08T03:42:16;1.90;;;1.70;;
15699;SDS011;7950;42.744;23.174;2024-03-08T03:44:44;2.10;;;1.90;;
15699;SDS011;7950;42.744;23.174;2024-03-08T03:47:15;2.30;;;1.77;;
15699;SDS011;7950;42.744;23.174;2024-03-08T03:49:44;1.70;;;1.60;;
15699;SDS011;7950;42.744;23.174;2024-03-08T03:52:13;2.93;;;1.60;;
15699;SDS011;7950;42.744;23.174;2024-03-08T03:54:42;1.90;;;1.80;;
15699;SDS011;7950;42.744;23.174;2024-03-08T03:57:10;2.30;;;2.10;;
15699;SDS011;7950;42.744;23.174;2024-03-08T03:59:40;3.20;;;2.50;;
15699;SDS011;7950;42.744;23.174;2024-03-08T04:02:09;2.60;;;2.30;;
15699;SDS011;7950;42.744;23.174;2024-03-08T04:04:38;5.67;;;2.77;;
15699;SDS011;7950;42.744;23.174;2024-03-08T04:07:07;3.30;;;3.00;;
15699;SDS011;7950;42.744;23.174;2024-03-08T04:09:37;3.27;;;2.97;;
15699;SDS011;7950;42.744;23.174;2024-03-08T04:12:05;2.80;;;2.50;;
15699;SDS011;7950;42.744;23.174;2024-03-08T04:14:36;3.10;;;2.60;;
15699;SDS011;7950;42.744;23.174;2024-03-08T04:17:06;3.07;;;2.13;;
15699;SDS011;7950;42.744;23.174;2024-03-08T04:19:35;5.87;;;2.47;;
15699;SDS011;7950;42.744;23.174;2024-03-08T04:22:05;2.63;;;2.03;;
15699;SDS011;7950;42.744;23.174;2024-03-08T04:24:34;5.17;;;2.47;;
15699;SDS011;7950;42.744;23.174;2024-03-08T04:27:03;3.50;;;2.13;;
15699;SDS011;7950;42.744;23.174;2024-03-08T04:29:31;3.17;;;2.10;;
15699;SDS011;7950;42.744;23.174;2024-03-08T04:32:01;3.57;;;2.10;;
15699;SDS011;7950;42.744;23.174;2024-03-08T04:34:31;3.80;;;2.13;;
15699;SDS011;7950;42.744;23.174;2024-03-08T04:37:00;2.93;;;2.30;;
15699;SDS011;7950;42.744;23.174;2024-03-08T04:39:30;3.17;;;1.83;;
15699;SDS011;7950;42.744;23.174;2024-03-08T04:41:59;5.63;;;3.30;;
15699;SDS011;7950;42.744;23.174;2024-03-08T04:44:32;5.93;;;2.10;;
15699;SDS011;7950;42.744;23.174;2024-03-08T04:47:01;4.53;;;2.10;;
15699;SDS011;7950;42.744;23.174;2024-03-08T04:49:29;2.83;;;1.90;;
15699;SDS011;7950;42.744;23.174;2024-03-08T04:51:57;3.63;;;2.50;;
15699;SDS011;7950;42.744;23.174;2024-03-08T04:54:26;4.00;;;2.90;;
15699;SDS011;7950;42.744;23.174;2024-03-08T04:56:56;5.23;;;3.70;;
15699;SDS011;7950;42.744;23.174;2024-03-08T04:59:26;12.50;;;6.63;;
15699;SDS011;7950;42.744;23.174;2024-03-08T05:01:55;17.90;;;8.37;;
15699;SDS011;7950;42.744;23.174;2024-03-08T05:04:23;10.70;;;6.20;;
15699;SDS011;7950;42.744;23.174;2024-03-08T05:06:52;4.30;;;2.80;;
15699;SDS011;7950;42.744;23.174;2024-03-08T05:09:20;3.63;;;2.13;;
15699;SDS011;7950;42.744;23.174;2024-03-08T05:11:50;3.10;;;2.27;;
15699;SDS011;7950;42.744;23.174;2024-03-08T05:14:20;1.90;;;1.73;;
15699;SDS011;7950;42.744;23.174;2024-03-08T05:16:48;3.10;;;1.70;;
15699;SDS011;7950;42.744;23.174;2024-03-08T05:19:19;2.57;;;2.10;;
15699;SDS011;7950;42.744;23.174;2024-03-08T05:21:48;3.87;;;2.60;;
15699;SDS011;7950;42.744;23.174;2024-03-08T05:24:17;4.60;;;4.07;;
15699;SDS011;7950;42.744;23.174;2024-03-08T05:26:46;3.63;;;3.23;;
15699;SDS011;7950;42.744;23.174;2024-03-08T05:29:14;3.23;;;2.93;;
15699;SDS011;7950;42.744;23.174;2024-03-08T05:31:46;4.17;;;2.53;;
15699;SDS011;7950;42.744;23.174;2024-03-08T05:34:15;4.43;;;3.00;;
15699;SDS011;7950;42.744;23.174;2024-03-08T05:36:46;4.10;;;2.80;;
15699;SDS011;7950;42.744;23.174;2024-03-08T05:39:16;2.80;;;2.60;;
15699;SDS011;7950;42.744;23.174;2024-03-08T05:41:45;4.10;;;2.67;;
15699;SDS011;7950;42.744;23.174;2024-03-08T05:44:14;3.87;;;3.07;;
15699;SDS011;7950;42.744;23.174;2024-03-08T05:46:45;3.50;;;3.03;;
15699;SDS011;7950;42.744;23.174;2024-03-08T05:49:14;3.40;;;3.10;;
15699;SDS011;7950;42.744;23.174;2024-03-08T05:51:43;2.77;;;2.57;;
15699;SDS011;7950;42.744;23.174;2024-03-08T05:54:11;4.43;;;2.57;;
15699;SDS011;7950;42.744;23.174;2024-03-08T05:56:44;4.43;;;2.80;;
15699;SDS011;7950;42.744;23.174;2024-03-08T05:59:14;3.37;;;3.07;;
15699;SDS011;7950;42.744;23.174;2024-03-08T06:01:45;3.33;;;3.03;;
15699;SDS011;7950;42.744;23.174;2024-03-08T06:04:13;3.57;;;2.90;;
15699;SDS011;7950;42.744;23.174;2024-03-08T06:06:43;2.90;;;2.40;;
15699;SDS011;7950;42.744;23.174;2024-03-08T06:09:16;5.63;;;3.40;;
15699;SDS011;7950;42.744;23.174;2024-03-08T06:11:50;4.53;;;3.83;;
15699;SDS011;7950;42.744;23.174;2024-03-08T06:14:19;5.23;;;3.67;;
15699;SDS011;7950;42.744;23.174;2024-03-08T06:16:50;3.70;;;2.97;;
15699;SDS011;7950;42.744;23.174;2024-03-08T06:19:18;3.77;;;3.17;;
15699;SDS011;7950;42.744;23.174;2024-03-08T06:21:46;7.10;;;4.47;;
15699;SDS011;7950;42.744;23.174;2024-03-08T06:24:14;6.13;;;4.70;;
15699;SDS011;7950;42.744;23.174;2024-03-08T06:26:43;4.20;;;3.57;;
15699;SDS011;7950;42.744;23.174;2024-03-08T06:29:12;4.93;;;3.70;;
15699;SDS011;7950;42.744;23.174;2024-03-08T06:31:42;5.37;;;4.20;;
15699;SDS011;7950;42.744;23.174;2024-03-08T06:34:11;4.50;;;3.70;;
15699;SDS011;7950;42.744;23.174;2024-03-08T06:36:42;4.97;;;3.77;;
15699;SDS011;7950;42.744;23.174;2024-03-08T06:39:10;6.03;;;3.90;;
15699;SDS011;7950;42.744;23.174;2024-03-08T06:41:39;6.47;;;3.90;;
15699;SDS011;7950;42.744;23.174;2024-03-08T06:44:07;6.03;;;4.07;;
15699;SDS011;7950;42.744;23.174;2024-03-08T06:46:35;4.37;;;3.63;;
15699;SDS011;7950;42.744;23.174;2024-03-08T06:49:05;4.90;;;3.83;;
15699;SDS011;7950;42.744;23.174;2024-03-08T06:51:35;4.20;;;3.80;;
15699;SDS011;7950;42.744;23.174;2024-03-08T06:54:04;4.93;;;4.00;;
15699;SDS011;7950;42.744;23.174;2024-03-08T06:56:36;5.50;;;3.93;;
15699;SDS011;7950;42.744;23.174;2024-03-08T06:59:05;4.70;;;4.07;;
15699;SDS011;7950;42.744;23.174;2024-03-08T07:01:39;5.73;;;4.40;;
15699;SDS011;7950;42.744;23.174;2024-03-08T07:04:07;5.77;;;4.50;;
15699;SDS011;7950;42.744;23.174;2024-03-08T07:06:39;6.17;;;4.20;;
15699;SDS011;7950;42.744;23.174;2024-03-08T07:09:08;5.60;;;3.73;;
15699;SDS011;7950;42.744;23.174;2024-03-08T07:11:37;5.63;;;3.83;;
15699;SDS011;7950;42.744;23.174;2024-03-08T07:14:10;4.57;;;3.87;;
15699;SDS011;7950;42.744;23.174;2024-03-08T07:16:42;5.67;;;4.27;;
15699;SDS011;7950;42.744;23.174;2024-03-08T07:19:11;5.70;;;4.10;;
15699;SDS011;7950;42.744;23.174;2024-03-08T07:21:41;6.03;;;3.80;;
15699;SDS011;7950;42.744;23.174;2024-03-08T07:24:10;4.97;;;3.73;;
15699;SDS011;7950;42.744;23.174;2024-03-08T07:26:54;3.87;;;3.17;;
15699;SDS011;7950;42.744;23.174;2024-03-08T07:29:23;4.57;;;3.30;;
15699;SDS011;7950;42.744;23.174;2024-03-08T07:31:51;4.27;;;3.43;;
15699;SDS011;7950;42.744;23.174;2024-03-08T07:34:28;5.90;;;3.40;;
15699;SDS011;7950;42.744;23.174;2024-03-08T07:37:00;4.73;;;3.70;;
15699;SDS011;7950;42.744;23.174;2024-03-08T07:39:32;4.13;;;3.53;;
15699;SDS011;7950;42.744;23.174;2024-03-08T07:42:00;5.30;;;3.77;;
15699;SDS011;7950;42.744;23.174;2024-03-08T07:44:29;3.80;;;3.40;;
15699;SDS011;7950;42.744;23.174;2024-03-08T07:46:58;3.80;;;3.50;;
15699;SDS011;7950;42.744;23.174;2024-03-08T07:49:27;2.93;;;2.50;;
15699;SDS011;7950;42.744;23.174;2024-03-08T07:51:55;2.67;;;2.37;;
15699;SDS011;7950;42.744;23.174;2024-03-08T07:54:25;3.80;;;3.37;;
15699;SDS011;7950;42.744;23.174;2024-03-08T07:56:54;4.77;;;3.30;;
15699;SDS011;7950;42.744;23.174;2024-03-08T07:59:22;5.33;;;3.93;;
15699;SDS011;7950;42.744;23.174;2024-03-08T08:01:51;6.67;;;3.63;;
15699;SDS011;7950;42.744;23.174;2024-03-08T08:04:19;3.87;;;2.93;;
15699;SDS011;7950;42.744;23.174;2024-03-08T08:06:51;3.77;;;3.10;;
15699;SDS011;7950;42.744;23.174;2024-03-08T08:09:21;2.67;;;2.47;;
15699;SDS011;7950;42.744;23.174;2024-03-08T08:12:02;2.50;;;2.27;;
15699;SDS011;7950;42.744;23.174;2024-03-08T08:14:31;3.43;;;2.73;;
15699;SDS011;7950;42.744;23.174;2024-03-08T08:16:59;3.90;;;2.60;;
15699;SDS011;7950;42.744;23.174;2024-03-08T08:19:30;2.57;;;2.30;;
15699;SDS011;7950;42.744;23.174;2024-03-08T08:22:00;3.80;;;2.80;;
15699;SDS011;7950;42.744;23.174;2024-03-08T08:24:28;3.43;;;2.93;;
15699;SDS011;7950;42.744;23.174;2024-03-08T08:26:56;3.63;;;3.20;;
15699;SDS011;7950;42.744;23.174;2024-03-08T08:29:27;4.10;;;3.40;;
15699;SDS011;7950;42.744;23.174;2024-03-08T08:31:59;3.10;;;2.40;;
15699;SDS011;7950;42.744;23.174;2024-03-08T08:34:29;3.27;;;2.70;;
15699;SDS011;7950;42.744;23.174;2024-03-08T08:36:58;3.77;;;2.97;;
15699;SDS011;7950;42.744;23.174;2024-03-08T08:39:26;3.63;;;3.13;;
15699;SDS011;7950;42.744;23.174;2024-03-08T08:41:54;2.83;;;2.50;;
15699;SDS011;7950;42.744;23.174;2024-03-08T08:44:23;3.70;;;2.83;;
15699;SDS011;7950;42.744;23.174;2024-03-08T08:46:53;4.20;;;2.93;;
15699;SDS011;7950;42.744;23.174;2024-03-08T08:49:31;3.53;;;2.53;;
15699;SDS011;7950;42.744;23.174;2024-03-08T08:52:00;3.60;;;3.00;;
15699;SDS011;7950;42.744;23.174;2024-03-08T08:54:41;2.93;;;2.60;;
15699;SDS011;7950;42.744;23.174;2024-03-08T08:57:15;2.60;;;2.40;;
15699;SDS011;7950;42.744;23.174;2024-03-08T08:59:44;3.43;;;2.93;;
15699;SDS011;7950;42.744;23.174;2024-03-08T09:02:14;2.17;;;1.97;;
15699;SDS011;7950;42.744;23.174;2024-03-08T09:04:44;2.83;;;2.20;;
15699;SDS011;7950;42.744;23.174;2024-03-08T09:07:13;4.70;;;2.03;;
15699;SDS011;7950;42.744;23.174;2024-03-08T09:09:41;4.30;;;1.93;;
15699;SDS011;7950;42.744;23.174;2024-03-08T09:12:10;2.00;;;1.90;;
15699;SDS011;7950;42.744;23.174;2024-03-08T09:14:40;1.93;;;1.83;;
15699;SDS011;7950;42.744;23.174;2024-03-08T09:17:08;1.77;;;1.60;;
15699;SDS011;7950;42.744;23.174;2024-03-08T09:19:38;4.47;;;1.93;;
15699;SDS011;7950;42.744;23.174;2024-03-08T09:22:06;1.87;;;1.70;;
15699;SDS011;7950;42.744;23.174;2024-03-08T09:24:35;3.03;;;2.07;;
15699;SDS011;7950;42.744;23.174;2024-03-08T09:27:03;2.23;;;2.03;;
15699;SDS011;7950;42.744;23.174;2024-03-08T09:29:32;2.73;;;2.10;;
15699;SDS011;7950;42.744;23.174;2024-03-08T09:32:00;2.37;;;2.17;;
15699;SDS011;7950;42.744;23.174;2024-03-08T09:34:29;3.00;;;2.43;;
15699;SDS011;7950;42.744;23.174;2024-03-08T09:37:05;2.37;;;1.87;;
15699;SDS011;7950;42.744;23.174;2024-03-08T09:39:35;1.93;;;1.60;;
15699;SDS011;7950;42.744;23.174;2024-03-08T09:42:04;3.33;;;2.80;;
15699;SDS011;7950;42.744;23.174;2024-03-08T09:44:33;2.93;;;2.20;;
15699;SDS011;7950;42.744;23.174;2024-03-08T09:47:02;2.10;;;1.90;;
15699;SDS011;7950;42.744;23.174;2024-03-08T09:49:33;2.20;;;1.90;;
15699;SDS011;7950;42.744;23.174;2024-03-08T09:52:05;2.87;;;1.97;;
15699;SDS011;7950;42.744;23.174;2024-03-08T09:54:35;3.63;;;1.73;;
15699;SDS011;7950;42.744;23.174;2024-03-08T09:57:04;2.60;;;2.00;;
15699;SDS011;7950;42.744;23.174;2024-03-08T09:59:34;3.70;;;2.20;;
15699;SDS011;7950;42.744;23.174;2024-03-08T10:02:14;2.17;;;1.97;;
15699;SDS011;7950;42.744;23.174;2024-03-08T10:04:44;2.03;;;1.90;;
15699;SDS011;7950;42.744;23.174;2024-03-08T10:07:16;2.43;;;2.23;;
15699;SDS011;7950;42.744;23.174;2024-03-08T10:09:45;2.33;;;2.00;;
15699;SDS011;7950;42.744;23.174;2024-03-08T10:12:17;2.30;;;2.10;;
15699;SDS011;7950;42.744;23.174;2024-03-08T10:14:46;2.40;;;2.17;;
15699;SDS011;7950;42.744;23.174;2024-03-08T10:17:14;2.20;;;2.00;;
15699;SDS011;7950;42.744;23.174;2024-03-08T10:19:50;2.20;;;2.00;;
15699;SDS011;7950;42.744;23.174;2024-03-08T10:22:21;1.90;;;1.70;;
15699;SDS011;7950;42.744;23.174;2024-03-08T10:24:50;1.50;;;1.40;;
15699;SDS011;7950;42.744;23.174;2024-03-08T10:27:19;2.07;;;1.50;;
15699;SDS011;7950;42.744;23.174;2024-03-08T10:29:48;1.83;;;1.73;;
15699;SDS011;7950;42.744;23.174;2024-03-08T10:32:18;1.73;;;1.63;;
15699;SDS011;7950;42.744;23.174;2024-03-08T10:34:47;1.57;;;1.47;;
15699;SDS011;7950;42.744;23.174;2024-03-08T10:37:17;1.80;;;1.70;;
15699;SDS011;7950;42.744;23.174;2024-03-08T10:39:54;1.70;;;1.60;;
15699;SDS011;7950;42.744;23.174;2024-03-08T10:42:38;1.60;;;1.47;;
15699;SDS011;7950;42.744;23.174;2024-03-08T10:45:11;2.70;;;1.60;;
15699;SDS011;7950;42.744;23.174;2024-03-08T10:47:49;2.00;;;1.80;;
15699;SDS011;7950;42.744;23.174;2024-03-08T10:50:21;2.53;;;1.80;;
15699;SDS011;7950;42.744;23.174;2024-03-08T10:52:53;1.80;;;1.70;;
15699;SDS011;7950;42.744;23.174;2024-03-08T10:55:24;2.33;;;2.00;;
15699;SDS011;7950;42.744;23.174;2024-03-08T10:57:55;1.63;;;1.53;;
15699;SDS011;7950;42.744;23.174;2024-03-08T11:00:23;1.93;;;1.70;;
15699;SDS011;7950;42.744;23.174;2024-03-08T11:02:53;2.47;;;2.27;;
15699;SDS011;7950;42.744;23.174;2024-03-08T11:05:32;1.67;;;1.57;;
15699;SDS011;7950;42.744;23.174;2024-03-08T11:08:20;2.10;;;1.90;;
15699;SDS011;7950;42.744;23.174;2024-03-08T11:10:50;2.30;;;2.03;;
15699;SDS011;7950;42.744;23.174;2024-03-08T11:13:32;1.90;;;1.80;;
15699;SDS011;7950;42.744;23.174;2024-03-08T11:16:01;2.43;;;1.80;;
15699;SDS011;7950;42.744;23.174;2024-03-08T11:18:32;2.40;;;2.20;;
15699;SDS011;7950;42.744;23.174;2024-03-08T11:21:02;2.20;;;2.00;;
15699;SDS011;7950;42.744;23.174;2024-03-08T11:23:35;2.43;;;2.10;;
15699;SDS011;7950;42.744;23.174;2024-03-08T11:26:03;1.90;;;1.80;;
15699;SDS011;7950;42.744;23.174;2024-03-08T11:28:44;2.50;;;2.30;;
15699;SDS011;7950;42.744;23.174;2024-03-08T11:31:23;2.27;;;2.03;;
15699;SDS011;7950;42.744;23.174;2024-03-08T11:33:53;2.73;;;1.90;;
15699;SDS011;7950;42.744;23.174;2024-03-08T11:36:23;2.20;;;2.00;;
15699;SDS011;7950;42.744;23.174;2024-03-08T11:38:54;2.50;;;2.20;;
15699;SDS011;7950;42.744;23.174;2024-03-08T11:41:26;1.87;;;1.77;;
15699;SDS011;7950;42.744;23.174;2024-03-08T11:44:04;1.70;;;1.60;;
15699;SDS011;7950;42.744;23.174;2024-03-08T11:46:33;2.10;;;1.70;;
15699;SDS011;7950;42.744;23.174;2024-03-08T11:49:02;11.30;;;2.07;;
15699;SDS011;7950;42.744;23.174;2024-03-08T11:51:32;2.87;;;1.70;;
15699;SDS011;7950;42.744;23.174;2024-03-08T11:54:02;2.13;;;1.80;;
15699;SDS011;7950;42.744;23.174;2024-03-08T11:56:32;2.00;;;1.70;;
15699;SDS011;7950;42.744;23.174;2024-03-08T11:59:01;2.07;;;1.57;;
15699;SDS011;7950;42.744;23.174;2024-03-08T12:01:30;1.50;;;1.40;;
15699;SDS011;7950;42.744;23.174;2024-03-08T12:03:59;1.70;;;1.60;;
15699;SDS011;7950;42.744;23.174;2024-03-08T12:06:35;1.63;;;1.53;;
15699;SDS011;7950;42.744;23.174;2024-03-08T12:09:11;1.60;;;1.50;;
15699;SDS011;7950;42.744;23.174;2024-03-08T12:11:41;1.70;;;1.60;;
15699;SDS011;7950;42.744;23.174;2024-03-08T12:14:13;4.27;;;3.33;;
15699;SDS011;7950;42.744;23.174;2024-03-08T12:16:42;2.03;;;1.93;;
15699;SDS011;7950;42.744;23.174;2024-03-08T12:19:11;1.90;;;1.80;;
15699;SDS011;7950;42.744;23.174;2024-03-08T12:21:41;1.80;;;1.70;;
15699;SDS011;7950;42.744;23.174;2024-03-08T12:24:16;1.70;;;1.60;;
15699;SDS011;7950;42.744;23.174;2024-03-08T12:26:46;1.47;;;1.37;;
15699;SDS011;7950;42.744;23.174;2024-03-08T12:29:16;1.77;;;1.67;;
15699;SDS011;7950;42.744;23.174;2024-03-08T12:31:47;2.07;;;1.87;;
15699;SDS011;7950;42.744;23.174;2024-03-08T12:34:18;3.17;;;1.77;;
15699;SDS011;7950;42.744;23.174;2024-03-08T12:36:47;2.47;;;2.00;;
15699;SDS011;7950;42.744;23.174;2024-03-08T12:39:20;2.87;;;1.80;;
15699;SDS011;7950;42.744;23.174;2024-03-08T12:41:54;1.80;;;1.70;;
15699;SDS011;7950;42.744;23.174;2024-03-08T12:44:24;2.53;;;1.80;;
15699;SDS011;7950;42.744;23.174;2024-03-08T12:46:54;2.00;;;1.80;;
15699;SDS011;7950;42.744;23.174;2024-03-08T12:49:25;2.07;;;1.67;;
15699;SDS011;7950;42.744;23.174;2024-03-08T12:51:54;1.90;;;1.80;;
15699;SDS011;7950;42.744;23.174;2024-03-08T12:54:24;1.87;;;1.67;;
15699;SDS011;7950;42.744;23.174;2024-03-08T12:56:52;1.70;;;1.50;;
15699;SDS011;7950;42.744;23.174;2024-03-08T12:59:21;2.13;;;1.80;;
15699;SDS011;7950;42.744;23.174;2024-03-08T13:01:50;1.97;;;1.80;;
15699;SDS011;7950;42.744;23.174;2024-03-08T13:04:20;2.40;;;1.90;;
15699;SDS011;7950;42.744;23.174;2024-03-08T13:06:49;1.93;;;1.80;;
15699;SDS011;7950;42.744;23.174;2024-03-08T13:09:21;2.10;;;1.90;;
15699;SDS011;7950;42.744;23.174;2024-03-08T13:11:52;2.47;;;2.13;;
15699;SDS011;7950;42.744;23.174;2024-03-08T13:14:21;2.93;;;2.70;;
15699;SDS011;7950;42.744;23.174;2024-03-08T13:16:50;3.57;;;2.17;;
15699;SDS011;7950;42.744;23.174;2024-03-08T13:19:19;5.93;;;4.03;;
15699;SDS011;7950;42.744;23.174;2024-03-08T13:21:48;6.83;;;3.27;;
15699;SDS011;7950;42.744;23.174;2024-03-08T13:24:17;6.47;;;4.53;;
15699;SDS011;7950;42.744;23.174;2024-03-08T13:26:47;5.10;;;4.47;;
15699;SDS011;7950;42.744;23.174;2024-03-08T13:29:18;6.93;;;2.67;;
15699;SDS011;7950;42.744;23.174;2024-03-08T13:31:48;2.00;;;1.80;;
15699;SDS011;7950;42.744;23.174;2024-03-08T13:34:19;2.20;;;2.00;;
15699;SDS011;7950;42.744;23.174;2024-03-08T13:36:54;1.87;;;1.73;;
15699;SDS011;7950;42.744;23.174;2024-03-08T13:39:27;2.47;;;2.27;;
15699;SDS011;7950;42.744;23.174;2024-03-08T13:41:57;2.37;;;2.17;;
15699;SDS011;7950;42.744;23.174;2024-03-08T13:44:27;1.70;;;1.60;;
15699;SDS011;7950;42.744;23.174;2024-03-08T13:46:56;1.93;;;1.83;;
15699;SDS011;7950;42.744;23.174;2024-03-08T13:49:25;2.10;;;1.90;;
15699;SDS011;7950;42.744;23.174;2024-03-08T13:51:54;2.20;;;2.00;;
15699;SDS011;7950;42.744;23.174;2024-03-08T13:54:25;1.83;;;1.73;;
15699;SDS011;7950;42.744;23.174;2024-03-08T13:56:57;2.20;;;2.00;;
15699;SDS011;7950;42.744;23.174;2024-03-08T13:59:27;2.70;;;2.30;;
15699;SDS011;7950;42.744;23.174;2024-03-08T14:01:56;2.30;;;2.10;;
15699;SDS011;7950;42.744;23.174;2024-03-08T14:04:26;2.23;;;2.00;;
15699;SDS011;7950;42.744;23.174;2024-03-08T14:06:54;2.23;;;2.03;;
15699;SDS011;7950;42.744;23.174;2024-03-08T14:09:29;2.40;;;2.20;;
15699;SDS011;7950;42.744;23.174;2024-03-08T14:11:58;2.07;;;1.90;;
15699;SDS011;7950;42.744;23.174;2024-03-08T14:14:28;2.53;;;2.27;;
15699;SDS011;7950;42.744;23.174;2024-03-08T14:16:56;2.23;;;2.00;;
15699;SDS011;7950;42.744;23.174;2024-03-08T14:19:25;2.27;;;2.07;;
15699;SDS011;7950;42.744;23.174;2024-03-08T14:21:54;2.63;;;2.00;;
15699;SDS011;7950;42.744;23.174;2024-03-08T14:24:22;7.33;;;6.63;;
15699;SDS011;7950;42.744;23.174;2024-03-08T14:26:50;3.00;;;2.60;;
15699;SDS011;7950;42.744;23.174;2024-03-08T14:29:19;2.60;;;2.07;;
15699;SDS011;7950;42.744;23.174;2024-03-08T14:31:49;2.20;;;1.90;;
15699;SDS011;7950;42.744;23.174;2024-03-08T14:34:17;3.20;;;2.77;;
15699;SDS011;7950;42.744;23.174;2024-03-08T14:36:46;3.70;;;2.50;;
15699;SDS011;7950;42.744;23.174;2024-03-08T14:39:15;4.83;;;3.17;;
15699;SDS011;7950;42.744;23.174;2024-03-08T14:41:48;2.70;;;2.37;;
15699;SDS011;7950;42.744;23.174;2024-03-08T14:44:20;4.00;;;3.10;;
15699;SDS011;7950;42.744;23.174;2024-03-08T14:46:50;4.20;;;3.00;;
15699;SDS011;7950;42.744;23.174;2024-03-08T14:49:18;4.20;;;3.20;;
15699;SDS011;7950;42.744;23.174;2024-03-08T14:51:47;4.60;;;3.60;;
15699;SDS011;7950;42.744;23.174;2024-03-08T14:54:16;3.07;;;2.73;;
15699;SDS011;7950;42.744;23.174;2024-03-08T14:56:49;3.77;;;2.70;;
15699;SDS011;7950;42.744;23.174;2024-03-08T14:59:18;4.83;;;3.23;;
15699;SDS011;7950;42.744;23.174;2024-03-08T15:01:47;5.80;;;4.20;;
15699;SDS011;7950;42.744;23.174;2024-03-08T15:04:16;4.00;;;3.60;;